Maliotenam, Canada
Current Conditions -  °F | °C
As of 3:00 AM on Sunday 21 Dec 2014 (Local Time) from CYZV Reporting Station
Few Clouds Few Clouds  
Wind Chill:   Ceiling: Unl
Heat Index:   Visibility: 15mi
Dew Point:   Wind: 2mph
Humidity: 78%   Direction: NA
Pressure: 30.36"   Gusts: NA
Location:  50.21°N, 66.19°W
Report Text: CYZV 210800Z VRB02KT 15SM FEW020 M15/M18 A3036 RMK SC1 SC TR SLP287
Loading
Personal Weather Stations






























Interactive Weather Map New forecast layout! Learn more

10-Day Weather Forecast

Advertisements
Track Severe Weather on mobile